createdAt,value
2019-05-14T00:01:47.199Z,51.83
2019-05-14T00:04:15.600Z,52.36
2019-05-14T00:06:44.072Z,52.52
2019-05-14T00:09:12.506Z,52.58
2019-05-14T00:11:42.144Z,53.44
2019-05-14T00:14:11.662Z,53.57
2019-05-14T00:16:42.479Z,53.09
2019-05-14T00:19:11.309Z,53.09
2019-05-14T00:21:42.102Z,53.96
2019-05-14T00:24:11.332Z,53.96
2019-05-14T00:26:42.665Z,54.41
2019-05-14T00:29:11.410Z,53.91
2019-05-14T00:31:42.207Z,54.03
2019-05-14T00:34:11.171Z,54.03
2019-05-14T00:36:41.747Z,54.84
2019-05-14T00:39:11.192Z,54.84
2019-05-14T00:41:41.909Z,54.83
2019-05-14T00:44:09.975Z,55.76
2019-05-14T00:46:40.960Z,55.76
2019-05-14T00:49:09.038Z,55.89
2019-05-14T00:51:37.437Z,55.67
2019-05-14T00:54:05.885Z,56.13
2019-05-14T00:56:34.683Z,56.20
2019-05-14T00:59:03.373Z,56.52
2019-05-14T01:01:31.967Z,56.78
2019-05-14T01:04:01.304Z,57.27
2019-05-14T01:06:31.469Z,57.27
2019-05-14T01:09:01.402Z,57.36
2019-05-14T01:11:31.538Z,57.36
2019-05-14T01:14:01.754Z,57.17
2019-05-14T01:16:31.737Z,57.40
2019-05-14T01:19:02.065Z,57.20
2019-05-14T01:21:31.334Z,57.77
2019-05-14T01:24:02.048Z,57.34
2019-05-14T01:26:31.040Z,57.74
2019-05-14T01:29:01.445Z,57.90
2019-05-14T01:31:31.483Z,57.80
2019-05-14T01:34:02.238Z,57.89
2019-05-14T01:36:32.105Z,58.09
2019-05-14T01:39:01.847Z,57.88
2019-05-14T01:41:31.734Z,57.77
2019-05-14T01:44:01.775Z,58.26
2019-05-14T01:46:31.681Z,58.09
2019-05-14T01:49:01.537Z,58.11
2019-05-14T01:51:31.587Z,57.58
2019-05-14T01:54:01.469Z,58.04
2019-05-14T01:56:31.963Z,57.85
2019-05-14T01:59:01.637Z,58.24
2019-05-14T02:01:31.494Z,58.45
2019-05-14T02:04:02.227Z,58.68
2019-05-14T02:06:31.760Z,59.21
2019-05-14T02:09:01.983Z,59.23
2019-05-14T02:11:32.034Z,59.59
2019-05-14T02:14:02.471Z,59.55
2019-05-14T02:16:31.395Z,59.84
2019-05-14T02:19:01.409Z,60.20
2019-05-14T02:21:31.804Z,60.28
2019-05-14T02:24:02.074Z,60.77
2019-05-14T02:26:31.621Z,61.00
2019-05-14T02:29:01.978Z,60.90
2019-05-14T02:31:30.632Z,61.36
2019-05-14T02:33:59.249Z,61.26
2019-05-14T02:36:30.926Z,61.55
2019-05-14T02:39:00.501Z,61.97
2019-05-14T02:41:29.963Z,62.01
2019-05-14T02:43:59.402Z,62.11
2019-05-14T02:46:29.507Z,61.97
2019-05-14T02:48:59.475Z,62.28
2019-05-14T02:51:29.945Z,62.09
2019-05-14T02:53:59.305Z,62.43
2019-05-14T02:56:29.548Z,62.33
2019-05-14T02:58:59.989Z,62.73
2019-05-14T03:01:30.154Z,62.50
2019-05-14T03:03:59.840Z,62.64
2019-05-14T03:06:29.188Z,63.21
2019-05-14T03:09:00.049Z,63.59
2019-05-14T03:11:29.722Z,63.78
2019-05-14T03:13:59.947Z,64.32
2019-05-14T03:16:32.536Z,65.25
2019-05-14T03:18:59.526Z,65.53
2019-05-14T03:21:30.380Z,65.48
2019-05-14T03:24:00.781Z,65.35
2019-05-14T03:26:29.579Z,65.15
2019-05-14T03:29:00.152Z,65.70
2019-05-14T03:31:32.879Z,65.97
2019-05-14T03:34:02.820Z,65.89
2019-05-14T03:36:34.009Z,65.75
2019-05-14T03:38:59.508Z,65.53
2019-05-14T03:41:30.663Z,65.42
2019-05-14T03:44:00.045Z,65.58
2019-05-14T03:46:44.651Z,65.74
2019-05-14T03:49:00.062Z,65.86
2019-05-14T03:51:29.771Z,66.15
2019-05-14T03:54:05.858Z,66.27
2019-05-14T03:56:29.886Z,66.80
2019-05-14T03:58:59.996Z,67.18
2019-05-14T04:01:29.831Z,67.68
2019-05-14T04:03:59.424Z,67.80
2019-05-14T04:06:30.611Z,67.70
2019-05-14T04:09:00.869Z,67.91
2019-05-14T04:11:31.172Z,68.15
2019-05-14T04:14:01.766Z,68.08
2019-05-14T04:16:33.121Z,68.23
2019-05-14T04:19:02.780Z,68.37
2019-05-14T04:21:32.621Z,68.49
2019-05-14T04:24:03.858Z,68.35
2019-05-14T04:26:53.226Z,68.36
2019-05-14T04:29:10.127Z,68.41
2019-05-14T04:31:39.932Z,68.87
2019-05-14T04:34:10.793Z,69.32
2019-05-14T04:36:39.363Z,69.32
2019-05-14T04:39:09.454Z,69.32
2019-05-14T04:41:39.315Z,69.40
2019-05-14T04:44:09.760Z,69.68
2019-05-14T04:46:39.559Z,69.39
2019-05-14T04:49:09.577Z,69.35
2019-05-14T04:51:39.746Z,69.47
2019-05-14T04:54:09.627Z,69.23
2019-05-14T04:56:39.882Z,69.06
2019-05-14T04:59:10.411Z,69.23
2019-05-14T05:01:40.135Z,68.92
2019-05-14T05:04:09.676Z,68.54
2019-05-14T05:06:39.630Z,68.39
2019-05-14T05:09:09.690Z,68.23
2019-05-14T05:11:39.470Z,68.14
2019-05-14T05:14:08.984Z,68.15
2019-05-14T05:16:39.091Z,68.12
2019-05-14T05:19:10.445Z,67.77
2019-05-14T05:21:38.893Z,67.70
2019-05-14T05:24:09.149Z,68.11
2019-05-14T05:26:39.242Z,68.72
2019-05-14T05:29:10.381Z,68.29
2019-05-14T05:31:38.327Z,68.61
2019-05-14T05:34:08.977Z,68.95
2019-05-14T05:36:38.013Z,69.18
2019-05-14T05:39:08.590Z,69.11
2019-05-14T05:41:38.477Z,69.28
2019-05-14T05:44:08.204Z,69.41
2019-05-14T05:46:38.785Z,69.37
2019-05-14T05:49:08.101Z,69.41
2019-05-14T05:51:39.188Z,69.30
2019-05-14T05:54:09.087Z,69.44
2019-05-14T05:56:38.826Z,69.80
2019-05-14T05:59:09.567Z,69.40
2019-05-14T06:01:45.768Z,69.36
2019-05-14T06:04:08.714Z,68.82
2019-05-14T06:06:39.078Z,69.17
2019-05-14T06:09:08.967Z,68.83
2019-05-14T06:11:38.114Z,68.92
2019-05-14T06:14:08.360Z,68.84
2019-05-14T06:16:38.482Z,69.14
2019-05-14T06:19:08.165Z,68.39
2019-05-14T06:21:39.538Z,67.73
2019-05-14T06:24:09.003Z,67.21
2019-05-14T06:26:38.384Z,66.75
2019-05-14T06:29:08.416Z,66.75
2019-05-14T06:31:38.744Z,66.35
2019-05-14T06:34:09.510Z,66.58
2019-05-14T06:36:39.576Z,66.03
2019-05-14T06:39:09.362Z,66.03
2019-05-14T06:41:42.465Z,66.37
2019-05-14T06:44:09.185Z,65.98
2019-05-14T06:46:39.144Z,66.01
2019-05-14T06:49:09.095Z,65.61
2019-05-14T06:51:39.532Z,65.72
2019-05-14T06:54:09.234Z,65.11
2019-05-14T06:56:38.602Z,65.03
2019-05-14T06:59:08.994Z,64.11
2019-05-14T07:01:38.431Z,64.15
2019-05-14T07:04:08.778Z,63.24
2019-05-14T07:06:39.164Z,62.99
2019-05-14T07:09:08.201Z,62.18
2019-05-14T07:11:38.801Z,62.39
2019-05-14T07:14:10.912Z,61.89
2019-05-14T07:16:39.061Z,60.53
2019-05-14T07:19:09.487Z,60.54
2019-05-14T07:21:38.361Z,60.13
2019-05-14T07:24:08.687Z,59.98
2019-05-14T07:26:38.890Z,60.87
2019-05-14T07:29:11.224Z,60.87
2019-05-14T07:31:38.484Z,58.73
2019-05-14T07:34:08.895Z,59.22
2019-05-14T07:36:38.657Z,58.50
2019-05-14T07:39:09.465Z,58.50
2019-05-14T07:41:38.974Z,58.38
2019-05-14T07:44:09.263Z,58.31
2019-05-14T07:46:38.951Z,58.31
2019-05-14T07:49:11.003Z,57.87
2019-05-14T07:51:38.811Z,58.59
2019-05-14T07:54:08.336Z,57.25
2019-05-14T07:56:38.526Z,57.25
2019-05-14T07:59:08.967Z,56.63
2019-05-14T08:01:38.867Z,54.88
2019-05-14T08:04:11.058Z,54.88
2019-05-14T08:06:39.376Z,52.21
2019-05-14T08:09:09.447Z,52.80
2019-05-14T08:11:38.792Z,52.51
2019-05-14T08:14:09.016Z,51.45
2019-05-14T08:16:38.086Z,50.73
2019-05-14T08:19:23.021Z,51.11
2019-05-14T08:21:38.795Z,50.32
2019-05-14T08:24:08.839Z,50.08
2019-05-14T08:26:38.200Z,48.37
2019-05-14T08:29:08.715Z,49.81
2019-05-14T08:31:38.384Z,49.54
2019-05-14T08:34:09.185Z,47.84
2019-05-14T08:36:38.013Z,47.54
2019-05-14T08:39:08.841Z,46.66
2019-05-14T08:41:38.396Z,47.10
2019-05-14T08:44:08.592Z,47.33
2019-05-14T08:46:38.869Z,46.40
2019-05-14T08:49:08.982Z,45.59
2019-05-14T08:51:38.859Z,44.06
2019-05-14T08:54:08.257Z,46.48
2019-05-14T08:56:38.945Z,43.82
2019-05-14T08:59:08.661Z,42.25
2019-05-14T09:01:38.809Z,43.33
2019-05-14T09:04:09.030Z,43.15
2019-05-14T09:06:38.524Z,41.17
2019-05-14T09:09:09.446Z,41.23
2019-05-14T09:11:44.676Z,39.63
2019-05-14T09:14:10.952Z,38.71
2019-05-14T09:16:46.436Z,41.74
2019-05-14T09:19:08.797Z,40.52
2019-05-14T09:21:39.833Z,41.32
2019-05-14T09:24:09.552Z,39.06
2019-05-14T09:26:39.112Z,39.97
2019-05-14T09:29:19.415Z,39.31
2019-05-14T09:31:39.105Z,39.84
2019-05-14T09:34:09.220Z,39.36
2019-05-14T09:36:39.626Z,39.76
2019-05-14T09:39:11.979Z,39.64
2019-05-14T09:41:39.109Z,40.28
2019-05-14T09:44:09.338Z,39.37
2019-05-14T09:46:38.484Z,39.63
2019-05-14T09:49:08.041Z,36.22
2019-05-14T09:51:38.377Z,36.17
2019-05-14T09:54:08.576Z,34.31
2019-05-14T09:56:39.371Z,36.59
2019-05-14T09:59:09.163Z,34.04
2019-05-14T10:01:38.353Z,34.49
2019-05-14T10:04:09.208Z,33.99
2019-05-14T10:06:39.187Z,34.22
2019-05-14T10:09:08.576Z,35.89
2019-05-14T10:11:38.352Z,32.82
2019-05-14T10:14:07.996Z,36.06
2019-05-14T10:16:38.496Z,35.80
2019-05-14T10:19:06.580Z,35.20
2019-05-14T10:21:34.984Z,34.84
2019-05-14T10:24:03.353Z,33.90
2019-05-14T10:26:32.087Z,33.87
2019-05-14T10:29:00.487Z,34.44
2019-05-14T10:31:29.205Z,35.73
2019-05-14T10:33:58.881Z,35.21
2019-05-14T10:36:29.830Z,32.55
2019-05-14T10:38:58.806Z,32.66
2019-05-14T10:41:29.139Z,32.43
2019-05-14T10:43:58.913Z,32.58
2019-05-14T10:46:29.040Z,33.82
2019-05-14T10:49:00.247Z,34.50
2019-05-14T10:51:28.477Z,35.28
2019-05-14T10:53:59.460Z,35.72
2019-05-14T10:56:29.534Z,36.53
2019-05-14T10:58:58.449Z,34.96
2019-05-14T11:01:28.487Z,35.67
2019-05-14T11:03:57.274Z,36.45
2019-05-14T11:06:25.890Z,36.41
2019-05-14T11:08:54.550Z,35.02
2019-05-14T11:11:23.015Z,33.75
2019-05-14T11:13:51.406Z,32.63
2019-05-14T11:16:20.107Z,31.67
2019-05-14T11:18:49.669Z,33.26
2019-05-14T11:21:26.067Z,34.50
2019-05-14T11:23:49.392Z,35.69
2019-05-14T11:26:18.614Z,36.89
2019-05-14T11:28:49.037Z,36.41
2019-05-14T11:31:19.142Z,36.32
2019-05-14T11:33:49.675Z,35.42
2019-05-14T11:36:18.916Z,34.51
2019-05-14T11:38:50.650Z,34.74
2019-05-14T11:41:18.716Z,35.36
2019-05-14T11:43:49.201Z,35.08
2019-05-14T11:46:26.102Z,35.33
2019-05-14T11:48:49.014Z,33.65
2019-05-14T11:51:20.626Z,35.86
2019-05-14T11:53:49.411Z,34.76
2019-05-14T11:56:19.406Z,33.22
2019-05-14T11:58:48.066Z,32.47
2019-05-14T12:01:18.927Z,33.06
2019-05-14T12:03:49.931Z,31.73
2019-05-14T12:06:18.553Z,32.20
2019-05-14T12:08:47.216Z,31.59
2019-05-14T12:11:18.495Z,32.40
2019-05-14T12:13:48.440Z,30.15
2019-05-14T12:16:15.848Z,31.61
2019-05-14T12:18:44.250Z,33.11
2019-05-14T12:21:12.695Z,33.76
2019-05-14T12:23:41.076Z,32.70
2019-05-14T12:26:09.797Z,32.73
2019-05-14T12:28:38.809Z,33.01
2019-05-14T12:31:09.391Z,35.13
2019-05-14T12:33:39.632Z,32.44
2019-05-14T12:36:10.183Z,32.67
2019-05-14T12:38:38.504Z,32.39
2019-05-14T12:41:09.177Z,32.69
2019-05-14T12:43:39.729Z,33.96
2019-05-14T12:46:10.462Z,34.49
2019-05-14T12:48:38.976Z,33.73
2019-05-14T12:51:08.935Z,32.38
2019-05-14T12:53:39.412Z,30.83
2019-05-14T12:56:08.694Z,31.84
2019-05-14T12:58:42.899Z,32.96
2019-05-14T13:01:08.866Z,31.92
2019-05-14T13:03:37.767Z,31.08
2019-05-14T13:06:07.054Z,31.59
2019-05-14T13:08:38.743Z,31.15
2019-05-14T13:11:09.331Z,31.36
2019-05-14T13:13:42.378Z,30.71
2019-05-14T13:16:07.827Z,32.20
2019-05-14T13:18:38.704Z,32.82
2019-05-14T13:21:06.856Z,33.25
2019-05-14T13:23:35.266Z,31.55
2019-05-14T13:26:03.648Z,31.01
2019-05-14T13:28:32.033Z,31.17
2019-05-14T13:31:00.422Z,31.53
2019-05-14T13:33:28.823Z,32.35
2019-05-14T13:35:59.476Z,33.57
2019-05-14T13:38:27.371Z,33.08
2019-05-14T13:40:55.748Z,33.45
2019-05-14T13:43:24.144Z,32.91
2019-05-14T13:45:52.549Z,33.21
2019-05-14T13:48:20.952Z,33.52
2019-05-14T13:50:49.379Z,31.98
2019-05-14T13:53:18.886Z,29.76
2019-05-14T13:55:56.819Z,29.49
2019-05-14T13:58:21.070Z,32.20
2019-05-14T14:00:52.184Z,30.17
2019-05-14T14:03:20.248Z,31.31
2019-05-14T14:05:49.816Z,32.11
2019-05-14T14:08:19.282Z,33.16
2019-05-14T14:10:52.916Z,33.44
2019-05-14T14:13:19.764Z,32.61
2019-05-14T14:15:49.081Z,33.80
2019-05-14T14:18:21.035Z,32.77
2019-05-14T14:20:48.945Z,33.63
2019-05-14T14:23:26.213Z,32.78
2019-05-14T14:25:53.311Z,33.19
2019-05-14T14:28:18.243Z,33.40
2019-05-14T14:30:49.164Z,32.99
2019-05-14T14:33:25.704Z,35.40
2019-05-14T14:35:58.410Z,32.33
2019-05-14T14:38:29.169Z,32.95
2019-05-14T14:40:58.258Z,33.29
2019-05-14T14:43:29.186Z,33.35
2019-05-14T14:45:59.277Z,33.52
2019-05-14T14:48:30.272Z,33.19
2019-05-14T14:50:58.590Z,33.87
2019-05-14T14:53:45.970Z,34.50
2019-05-14T14:56:00.403Z,33.42
2019-05-14T14:58:32.035Z,33.57
2019-05-14T15:01:00.950Z,33.10
2019-05-14T15:03:29.734Z,34.23
2019-05-14T15:05:58.878Z,34.76
2019-05-14T15:08:29.329Z,34.77
2019-05-14T15:10:59.302Z,34.34
2019-05-14T15:13:27.997Z,33.45
2019-05-14T15:15:56.381Z,32.80
2019-05-14T15:18:24.764Z,33.24
2019-05-14T15:20:53.183Z,34.48
2019-05-14T15:23:21.724Z,33.13
2019-05-14T15:25:50.190Z,33.08
2019-05-14T15:28:19.106Z,33.90
2019-05-14T15:30:49.891Z,33.65
2019-05-14T15:33:18.914Z,34.11
2019-05-14T15:35:50.684Z,34.87
2019-05-14T15:38:19.391Z,34.54
2019-05-14T15:40:48.771Z,33.64
2019-05-14T15:43:20.236Z,32.90
2019-05-14T15:45:49.004Z,32.92
2019-05-14T15:48:19.934Z,33.23
2019-05-14T15:50:50.162Z,33.64
2019-05-14T15:53:19.518Z,32.48
2019-05-14T15:55:49.062Z,33.33
2019-05-14T15:58:21.397Z,33.38
2019-05-14T16:00:48.146Z,33.28
2019-05-14T16:03:18.643Z,33.59
2019-05-14T16:05:48.822Z,33.30
2019-05-14T16:08:22.182Z,34.24
2019-05-14T16:10:47.117Z,34.01
2019-05-14T16:13:15.530Z,33.46
2019-05-14T16:15:48.417Z,33.55
2019-05-14T16:18:19.761Z,33.89
2019-05-14T16:20:49.686Z,32.57
2019-05-14T16:23:19.865Z,32.40
2019-05-14T16:25:48.836Z,32.59
2019-05-14T16:28:19.564Z,33.55
2019-05-14T16:30:49.684Z,33.22
2019-05-14T16:33:18.606Z,33.80
2019-05-14T16:35:48.540Z,33.57
2019-05-14T16:38:17.346Z,34.30
2019-05-14T16:40:48.766Z,33.84
2019-05-14T16:43:18.988Z,33.65
2019-05-14T16:45:48.972Z,34.23
2019-05-14T16:48:18.241Z,34.38
2019-05-14T16:50:48.807Z,34.59
2019-05-14T16:53:20.330Z,34.74
2019-05-14T16:55:49.011Z,33.20
2019-05-14T16:58:19.451Z,33.47
2019-05-14T17:00:48.265Z,33.81
2019-05-14T17:03:19.113Z,33.21
2019-05-14T17:05:48.736Z,33.77
2019-05-14T17:08:19.009Z,34.64
2019-05-14T17:10:48.181Z,34.36
2019-05-14T17:13:17.915Z,35.06
2019-05-14T17:15:48.139Z,34.10
2019-05-14T17:18:19.127Z,35.08
2019-05-14T17:20:48.791Z,34.58
2019-05-14T17:23:19.210Z,34.61
2019-05-14T17:25:48.518Z,33.54
2019-05-14T17:28:17.036Z,33.69
2019-05-14T17:30:45.423Z,34.32
2019-05-14T17:33:13.797Z,34.26
2019-05-14T17:35:42.268Z,35.03
2019-05-14T17:38:15.034Z,35.10
2019-05-14T17:40:43.490Z,35.67
2019-05-14T17:43:11.901Z,35.66
2019-05-14T17:45:44.110Z,36.22
2019-05-14T17:48:12.469Z,36.01
2019-05-14T17:50:40.851Z,35.75
2019-05-14T17:53:09.823Z,36.17
2019-05-14T17:55:46.638Z,35.89
2019-05-14T17:58:13.137Z,36.11
2019-05-14T18:00:38.508Z,35.95
2019-05-14T18:03:08.703Z,36.30
2019-05-14T18:05:37.220Z,36.24
2019-05-14T18:08:05.742Z,36.94
2019-05-14T18:10:34.164Z,36.82
2019-05-14T18:13:02.595Z,36.23
2019-05-14T18:15:30.983Z,37.29
2019-05-14T18:17:59.390Z,36.93
2019-05-14T18:20:28.694Z,36.86
2019-05-14T18:22:58.319Z,36.51
2019-05-14T18:25:29.126Z,36.60
2019-05-14T18:27:57.218Z,37.25
2019-05-14T18:30:25.854Z,37.27
2019-05-14T18:32:54.264Z,37.16
2019-05-14T18:35:22.642Z,37.20
2019-05-14T18:37:51.165Z,37.57
2019-05-14T18:40:19.774Z,37.56
2019-05-14T18:42:48.208Z,37.17
2019-05-14T18:45:18.973Z,37.85
2019-05-14T18:47:48.558Z,38.10
2019-05-14T18:50:19.589Z,37.89
2019-05-14T18:52:48.547Z,38.15
2019-05-14T18:55:18.669Z,38.60
2019-05-14T18:57:48.667Z,38.74
2019-05-14T19:00:18.624Z,38.80
2019-05-14T19:02:48.242Z,39.09
2019-05-14T19:05:18.291Z,39.19
2019-05-14T19:07:48.674Z,39.63
2019-05-14T19:10:18.551Z,39.65
2019-05-14T19:12:49.991Z,39.73
2019-05-14T19:15:18.513Z,40.34
2019-05-14T19:17:48.958Z,40.46
2019-05-14T19:20:19.275Z,40.37
2019-05-14T19:22:49.076Z,41.12
2019-05-14T19:25:18.587Z,40.66
2019-05-14T19:27:48.774Z,41.00
2019-05-14T19:30:19.112Z,41.13
2019-05-14T19:32:48.520Z,41.32
2019-05-14T19:35:19.129Z,41.64
2019-05-14T19:37:48.663Z,41.15
2019-05-14T19:40:18.926Z,41.83
2019-05-14T19:42:48.503Z,41.53
2019-05-14T19:45:17.395Z,41.71
2019-05-14T19:47:45.931Z,42.31
2019-05-14T19:50:14.904Z,42.50
2019-05-14T19:52:43.636Z,42.27
2019-05-14T19:55:12.484Z,42.94
2019-05-14T19:57:41.000Z,43.09
2019-05-14T20:00:09.957Z,42.77
2019-05-14T20:02:38.457Z,43.53
2019-05-14T20:05:08.953Z,43.46
2019-05-14T20:07:38.762Z,44.05
2019-05-14T20:10:08.758Z,44.54
2019-05-14T20:12:39.358Z,45.05
2019-05-14T20:15:09.391Z,45.24
2019-05-14T20:17:38.509Z,45.40
2019-05-14T20:20:09.206Z,44.95
2019-05-14T20:22:39.483Z,45.56
2019-05-14T20:25:08.928Z,45.76
2019-05-14T20:27:38.929Z,45.45
2019-05-14T20:30:09.895Z,46.16
2019-05-14T20:32:39.823Z,46.74
2019-05-14T20:35:09.145Z,46.99
2019-05-14T20:37:38.906Z,47.13
2019-05-14T20:40:09.570Z,46.75
2019-05-14T20:42:39.045Z,47.00
2019-05-14T20:45:08.541Z,46.80
2019-05-14T20:47:39.139Z,47.26
2019-05-14T20:50:08.997Z,47.62
2019-05-14T20:52:37.549Z,46.77
2019-05-14T20:55:09.685Z,47.16
2019-05-14T20:57:38.712Z,47.71
2019-05-14T21:00:11.367Z,48.26
2019-05-14T21:02:39.814Z,48.19
2019-05-14T21:05:13.617Z,47.77
2019-05-14T21:07:39.390Z,48.57
2019-05-14T21:10:08.613Z,48.44
2019-05-14T21:12:39.789Z,48.78
2019-05-14T21:15:10.083Z,48.92
2019-05-14T21:17:39.241Z,48.92
2019-05-14T21:20:09.104Z,48.99
2019-05-14T21:22:40.003Z,48.51
2019-05-14T21:25:11.217Z,49.22
2019-05-14T21:27:48.223Z,49.88
2019-05-14T21:30:12.287Z,49.06
2019-05-14T21:32:42.593Z,49.11
2019-05-14T21:35:11.206Z,50.24
2019-05-14T21:37:39.903Z,50.24
2019-05-14T21:40:09.437Z,49.72
2019-05-14T21:42:38.530Z,50.08
2019-05-14T21:45:09.702Z,50.37
2019-05-14T21:47:38.706Z,50.77
2019-05-14T21:50:09.086Z,50.49
2019-05-14T21:52:39.187Z,50.49
2019-05-14T21:55:08.082Z,49.21
2019-05-14T21:57:38.139Z,51.34
2019-05-14T22:00:12.948Z,51.34
2019-05-14T22:02:41.627Z,51.32
2019-05-14T22:05:11.701Z,50.93
2019-05-14T22:07:40.109Z,51.30
2019-05-14T22:10:08.762Z,50.91
2019-05-14T22:12:39.290Z,51.35
2019-05-14T22:15:08.552Z,50.88
2019-05-14T22:17:38.172Z,50.81
2019-05-14T22:20:08.661Z,50.81
2019-05-14T22:22:39.112Z,50.64
2019-05-14T22:25:08.037Z,50.17
2019-05-14T22:27:39.164Z,50.17
2019-05-14T22:30:08.482Z,51.88
2019-05-14T22:32:41.756Z,52.44
2019-05-14T22:35:09.280Z,52.89
2019-05-14T22:37:39.018Z,53.05
2019-05-14T22:40:07.847Z,53.05
2019-05-14T22:42:39.062Z,51.87
2019-05-14T22:45:09.328Z,51.87
2019-05-14T22:47:40.290Z,51.76
2019-05-14T22:50:09.107Z,51.90
2019-05-14T22:52:38.648Z,51.33
2019-05-14T22:55:07.974Z,51.33
2019-05-14T22:57:38.961Z,51.84
2019-05-14T23:00:11.180Z,52.09
2019-05-14T23:02:39.559Z,52.09
2019-05-14T23:05:08.580Z,51.73
2019-05-14T23:07:38.804Z,51.54
2019-05-14T23:10:08.946Z,52.06
2019-05-14T23:12:38.557Z,51.31
2019-05-14T23:15:07.754Z,51.31
2019-05-14T23:17:38.715Z,51.52
2019-05-14T23:20:09.143Z,51.52
2019-05-14T23:22:39.147Z,51.71
2019-05-14T23:25:09.034Z,51.51
2019-05-14T23:27:39.154Z,52.66
2019-05-14T23:30:09.237Z,52.66
2019-05-14T23:32:38.593Z,52.00
2019-05-14T23:35:08.085Z,51.44
2019-05-14T23:37:36.607Z,51.44
2019-05-14T23:40:08.538Z,51.51
2019-05-14T23:42:39.028Z,51.80
2019-05-14T23:45:08.230Z,51.45
2019-05-14T23:47:38.373Z,51.88
2019-05-14T23:50:08.224Z,51.62
2019-05-14T23:52:38.736Z,51.62
2019-05-14T23:55:08.565Z,51.45
2019-05-14T23:57:37.089Z,51.89
